AirNav   Everest Fuels
 
 1444 users online  

7IN2 Flying Crown Airport
Hamilton, Indiana, USA

GOING TO HAMILTON?


FAA INFORMATION EFFECTIVE 07 OCTOBER 2021

Location

FAA Identifier: 7IN2
Lat/Long: 41-30-05.0000N 084-52-42.0000W
41-30.083333N 084-52.700000W
41.5013889,-84.8783333
(estimated)
Elevation: 920 ft. / 280 m (estimated)
Variation: 05W (2000)
From city: 3 miles SE of HAMILTON, IN
Time zone: UTC -4 (UTC -5 during Standard Time)
Zip code: 46721

Airport Operations

Airport use: Private use. Permission required prior to landing
Activation date: 06/2002
Control tower: no
ARTCC: CHICAGO CENTER
FSS: TERRE HAUTE FLIGHT SERVICE STATION
Attendance: UNATNDD
Segmented circle: no

Airport Communications

WX AWOS-3 at ANQ (12 nm NW): 118.175 (260-668-5630)
WX AWOS-3 at GWB (14 nm SW): 124.15 (260-925-8225)
WX AWOS-3P at C62 (17 nm W): 119.925 (260-347-2967)

Nearby radio navigation aids

VOR radial/distance  VOR name  Freq  Var
OLKr064/(31.8)WEBSTER LAKE VOR110.4003W
LFDr194/34.0LITCHFIELD VOR/DME111.2005W
FWAr030/34.3FORT WAYNE VORTAC117.8006W

 
NDB name  Hdg/Dist  Freq  Var  ID
SHENK019/12.022705WGW --. .--
STURGIS131/31.138204WIRS .. .-. ...

Airport Services

Runway Information

Runway 18/36

Dimensions: 2800 x 100 ft. / 853 x 30 m
Surface: turf
RUNWAY 18  RUNWAY 36
Traffic pattern: leftright

Airport Ownership and Management from official FAA records

Ownership: Privately-owned
Owner: DAVID B. FINK
1004 STATE ROAD
BUTLER, IN 46721
Phone (260) 868-5739
Manager: DAVID B. FINK
1004 STATE ROAD
BUTLER, IN 46721
Phone (260) 868-5739

Airport Operational Statistics

Aircraft based on the field: 1
Single engine airplanes: 1
    

Additional Remarks

FOR CD CTC CHICAGO ARTCC AT 630-906-8921.

Instrument Procedures

There are no published instrument procedures at 7IN2.

Some nearby airports with instrument procedures:

KANQ - Tri-State Steuben County Airport (12 nm NW)
KGWB - De Kalb County Airport (14 nm SW)
0G6 - Williams County Airport (17 nm E)
C62 - Kendallville Municipal Airport (17 nm W)
KDFI - Defiance Memorial Airport (22 nm SE)
 
Loc | Ops | Rwys | IFR | FBO | Links
Com | Nav | Svcs | Stats | Notes
Area around 7IN2 (Flying Crown Airport)
 
Road maps at: MapQuest Bing Google
 
Aerial photo
No photo
 
Sectional chart

 
Airport distance calculator
Flying to Flying Crown Airport? Find the distance to fly.

From to 7IN2

Sunrise and sunset
Times for 20-Oct-2021
 Local
(UTC-4)
 Zulu
(UTC)
Morning civil twilight07:3011:30
Sunrise07:5811:58
Sunset18:5122:51
Evening civil twilight19:1923:19

Current date and time
Zulu (UTC)  20-Oct-2021 22:12:39
Local (UTC-4)  20-Oct-2021 18:12:39
 
METAR
KANQ 
12nm NW 
202155Z AUTO 22010KT 10SM FEW120 21/11 A3000 RMK AO2
KGWB 
14nm SW 
202155Z AUTO 24004KT 10SM SCT120 20/10 A3002 RMK AO2
KC62 
17nm W 
202135Z AUTO 21011G14KT 10SM CLR 22/11 A3001 RMK AO2 T02250112
KDFI 
22nm SE 
202153Z AUTO 20008KT 10SM CLR 22/09 A3000 RMK AO2 SLP157 T02220094
KSMD 
25nm SW 
202155Z AUTO 21006KT 1 3/4SM HZ BKN120 21/09 A3002 RMK A01 VIS 1 1/4V5
TAF
KFWA 
35nm SW 
201725Z 2018/2118 22010KT P6SM FEW200 FM210600 21010KT P6SM -SHRA VCTS SCT025CB BKN050 FM211200 23010KT P6SM BKN028 FM211400 24013G21KT P6SM BKN090
NOTAMs
Click for the latest NOTAMs
NOTAMs are issued by the DoD/FAA and will open in a separate window not controlled by AirNav.

 

 
 

Would you like to see your business listed on this page?

 If your business provides an interesting product or service to pilots, flight crews, aircraft, or users of the Flying Crown Airport, you should consider listing it here.  To start the listing process, click on the button below
 
Add a business
 

Other Pages about Flying Crown Airport

Update a link
 
Copyright © AirNav, LLC. All rights reserved. Privacy Policy  Contact